sensor_id;sensor_type;location;lat;lon;timestamp;temperature;humidity
13203;DHT22;6666;51.626;7.530;2023-02-23T00:02:00;10.10;99.90
13203;DHT22;6666;51.626;7.530;2023-02-23T00:04:34;10.10;99.90
13203;DHT22;6666;51.626;7.530;2023-02-23T00:07:02;10.10;99.90
13203;DHT22;6666;51.626;7.530;2023-02-23T00:09:32;10.10;99.90
13203;DHT22;6666;51.626;7.530;2023-02-23T00:12:03;10.10;99.90
13203;DHT22;6666;51.626;7.530;2023-02-23T00:14:35;10.10;99.90
13203;DHT22;6666;51.626;7.530;2023-02-23T00:17:05;10.10;99.90
13203;DHT22;6666;51.626;7.530;2023-02-23T00:19:41;10.10;99.90
13203;DHT22;6666;51.626;7.530;2023-02-23T00:22:10;10.10;99.90
13203;DHT22;6666;51.626;7.530;2023-02-23T00:24:38;10.10;99.90
13203;DHT22;6666;51.626;7.530;2023-02-23T00:27:08;10.10;99.90
13203;DHT22;6666;51.626;7.530;2023-02-23T00:29:43;10.10;99.90
13203;DHT22;6666;51.626;7.530;2023-02-23T00:32:15;10.10;99.90
13203;DHT22;6666;51.626;7.530;2023-02-23T00:34:47;10.00;99.90
13203;DHT22;6666;51.626;7.530;2023-02-23T00:37:16;10.00;99.90
13203;DHT22;6666;51.626;7.530;2023-02-23T00:39:47;10.00;99.90
13203;DHT22;6666;51.626;7.530;2023-02-23T00:42:15;10.00;99.90
13203;DHT22;6666;51.626;7.530;2023-02-23T00:44:43;10.00;99.90
13203;DHT22;6666;51.626;7.530;2023-02-23T00:47:13;10.00;99.90
13203;DHT22;6666;51.626;7.530;2023-02-23T00:49:41;10.10;99.90
13203;DHT22;6666;51.626;7.530;2023-02-23T00:52:12;10.10;99.90
13203;DHT22;6666;51.626;7.530;2023-02-23T00:54:41;10.10;99.90
13203;DHT22;6666;51.626;7.530;2023-02-23T00:57:09;10.10;99.90
13203;DHT22;6666;51.626;7.530;2023-02-23T00:59:37;10.10;99.90
13203;DHT22;6666;51.626;7.530;2023-02-23T01:02:06;10.10;99.90
13203;DHT22;6666;51.626;7.530;2023-02-23T01:04:34;10.10;99.90
13203;DHT22;6666;51.626;7.530;2023-02-23T01:07:03;10.10;99.90
13203;DHT22;6666;51.626;7.530;2023-02-23T01:09:33;10.00;99.90
13203;DHT22;6666;51.626;7.530;2023-02-23T01:12:03;10.00;99.90
13203;DHT22;6666;51.626;7.530;2023-02-23T01:14:34;10.00;99.90
13203;DHT22;6666;51.626;7.530;2023-02-23T01:17:03;10.00;99.90
13203;DHT22;6666;51.626;7.530;2023-02-23T01:19:31;10.00;99.90
13203;DHT22;6666;51.626;7.530;2023-02-23T01:22:02;10.00;99.90
13203;DHT22;6666;51.626;7.530;2023-02-23T01:24:30;10.00;99.90
13203;DHT22;6666;51.626;7.530;2023-02-23T01:27:04;10.00;99.90
13203;DHT22;6666;51.626;7.530;2023-02-23T01:29:33;10.00;99.90
13203;DHT22;6666;51.626;7.530;2023-02-23T01:32:01;10.00;99.90
13203;DHT22;6666;51.626;7.530;2023-02-23T01:34:31;10.00;99.90
13203;DHT22;6666;51.626;7.530;2023-02-23T01:36:59;9.90;99.90
13203;DHT22;6666;51.626;7.530;2023-02-23T01:39:28;10.00;99.90
13203;DHT22;6666;51.626;7.530;2023-02-23T01:41:56;9.90;99.90
13203;DHT22;6666;51.626;7.530;2023-02-23T01:47:31;9.90;99.90
13203;DHT22;6666;51.626;7.530;2023-02-23T01:50:01;9.90;99.90
13203;DHT22;6666;51.626;7.530;2023-02-23T01:52:30;9.90;99.90
13203;DHT22;6666;51.626;7.530;2023-02-23T01:54:59;9.90;99.90
13203;DHT22;6666;51.626;7.530;2023-02-23T01:57:28;9.90;99.90
13203;DHT22;6666;51.626;7.530;2023-02-23T01:59:57;9.90;99.90
13203;DHT22;6666;51.626;7.530;2023-02-23T02:02:27;9.90;99.90
13203;DHT22;6666;51.626;7.530;2023-02-23T02:05:03;9.90;99.90
13203;DHT22;6666;51.626;7.530;2023-02-23T02:07:34;9.90;99.90
13203;DHT22;6666;51.626;7.530;2023-02-23T02:10:03;9.90;99.90
13203;DHT22;6666;51.626;7.530;2023-02-23T02:12:51;9.90;99.90
13203;DHT22;6666;51.626;7.530;2023-02-23T02:15:21;9.90;99.90
13203;DHT22;6666;51.626;7.530;2023-02-23T02:18:00;9.90;99.90
13203;DHT22;6666;51.626;7.530;2023-02-23T02:21:01;9.90;99.90
13203;DHT22;6666;51.626;7.530;2023-02-23T02:24:10;9.90;99.90
13203;DHT22;6666;51.626;7.530;2023-02-23T02:26:54;9.90;99.90
13203;DHT22;6666;51.626;7.530;2023-02-23T02:36:03;9.90;99.90
13203;DHT22;6666;51.626;7.530;2023-02-23T02:38:48;9.90;99.90
13203;DHT22;6666;51.626;7.530;2023-02-23T02:41:24;9.90;99.90
13203;DHT22;6666;51.626;7.530;2023-02-23T02:44:08;9.90;99.90
13203;DHT22;6666;51.626;7.530;2023-02-23T02:46:40;9.80;99.90
13203;DHT22;6666;51.626;7.530;2023-02-23T02:49:18;9.90;99.90
13203;DHT22;6666;51.626;7.530;2023-02-23T02:51:51;9.80;99.90
13203;DHT22;6666;51.626;7.530;2023-02-23T02:54:27;9.80;99.90
13203;DHT22;6666;51.626;7.530;2023-02-23T02:56:59;9.80;99.90
13203;DHT22;6666;51.626;7.530;2023-02-23T02:59:30;9.80;99.90
13203;DHT22;6666;51.626;7.530;2023-02-23T03:02:18;9.80;99.90
13203;DHT22;6666;51.626;7.530;2023-02-23T03:05:12;9.80;99.90
13203;DHT22;6666;51.626;7.530;2023-02-23T03:08:08;9.80;99.90
13203;DHT22;6666;51.626;7.530;2023-02-23T03:11:01;9.80;99.90
13203;DHT22;6666;51.626;7.530;2023-02-23T03:14:01;9.80;99.90
13203;DHT22;6666;51.626;7.530;2023-02-23T03:16:55;9.80;99.90
13203;DHT22;6666;51.626;7.530;2023-02-23T03:19:54;9.80;99.90
13203;DHT22;6666;51.626;7.530;2023-02-23T03:22:46;9.80;99.90
13203;DHT22;6666;51.626;7.530;2023-02-23T03:25:45;9.80;99.90
13203;DHT22;6666;51.626;7.530;2023-02-23T03:28:38;9.80;99.90
13203;DHT22;6666;51.626;7.530;2023-02-23T03:31:36;9.80;99.90
13203;DHT22;6666;51.626;7.530;2023-02-23T03:34:29;9.80;99.90
13203;DHT22;6666;51.626;7.530;2023-02-23T03:37:20;9.80;99.90
13203;DHT22;6666;51.626;7.530;2023-02-23T03:40:12;9.80;99.90
13203;DHT22;6666;51.626;7.530;2023-02-23T03:43:04;9.80;99.90
13203;DHT22;6666;51.626;7.530;2023-02-23T03:45:51;9.80;99.90
13203;DHT22;6666;51.626;7.530;2023-02-23T03:48:39;9.80;99.90
13203;DHT22;6666;51.626;7.530;2023-02-23T03:51:28;9.70;99.90
13203;DHT22;6666;51.626;7.530;2023-02-23T03:54:19;9.70;99.90
13203;DHT22;6666;51.626;7.530;2023-02-23T03:57:09;9.70;99.90
13203;DHT22;6666;51.626;7.530;2023-02-23T03:59:59;9.70;99.90
13203;DHT22;6666;51.626;7.530;2023-02-23T04:02:49;9.70;99.90
13203;DHT22;6666;51.626;7.530;2023-02-23T04:05:38;9.70;99.90
13203;DHT22;6666;51.626;7.530;2023-02-23T04:08:29;9.70;99.90
13203;DHT22;6666;51.626;7.530;2023-02-23T04:11:21;9.70;99.90
13203;DHT22;6666;51.626;7.530;2023-02-23T04:14:15;9.70;99.90
13203;DHT22;6666;51.626;7.530;2023-02-23T04:16:44;9.70;99.90
13203;DHT22;6666;51.626;7.530;2023-02-23T04:19:13;9.70;99.90
13203;DHT22;6666;51.626;7.530;2023-02-23T04:21:41;9.70;99.90
13203;DHT22;6666;51.626;7.530;2023-02-23T04:24:10;9.70;99.90
13203;DHT22;6666;51.626;7.530;2023-02-23T04:26:38;9.70;99.90
13203;DHT22;6666;51.626;7.530;2023-02-23T04:29:06;9.70;99.90
13203;DHT22;6666;51.626;7.530;2023-02-23T04:31:35;9.60;99.90
13203;DHT22;6666;51.626;7.530;2023-02-23T04:34:03;9.60;99.90
13203;DHT22;6666;51.626;7.530;2023-02-23T04:36:33;9.60;99.90
13203;DHT22;6666;51.626;7.530;2023-02-23T04:39:02;9.60;99.90
13203;DHT22;6666;51.626;7.530;2023-02-23T04:41:30;9.60;99.90
13203;DHT22;6666;51.626;7.530;2023-02-23T04:43:58;9.60;99.90
13203;DHT22;6666;51.626;7.530;2023-02-23T04:46:27;9.60;99.90
13203;DHT22;6666;51.626;7.530;2023-02-23T04:48:55;9.60;99.90
13203;DHT22;6666;51.626;7.530;2023-02-23T04:51:23;9.60;99.90
13203;DHT22;6666;51.626;7.530;2023-02-23T04:53:57;9.60;99.90
13203;DHT22;6666;51.626;7.530;2023-02-23T04:56:25;9.60;99.90
13203;DHT22;6666;51.626;7.530;2023-02-23T04:58:54;9.60;99.90
13203;DHT22;6666;51.626;7.530;2023-02-23T05:01:22;9.60;99.90
13203;DHT22;6666;51.626;7.530;2023-02-23T05:03:51;9.60;99.90
13203;DHT22;6666;51.626;7.530;2023-02-23T05:06:20;9.60;99.90
13203;DHT22;6666;51.626;7.530;2023-02-23T05:08:49;9.60;99.90
13203;DHT22;6666;51.626;7.530;2023-02-23T05:11:19;9.60;99.90
13203;DHT22;6666;51.626;7.530;2023-02-23T05:13:47;9.60;99.90
13203;DHT22;6666;51.626;7.530;2023-02-23T05:24:30;9.60;99.90
13203;DHT22;6666;51.626;7.530;2023-02-23T05:27:00;9.50;99.90
13203;DHT22;6666;51.626;7.530;2023-02-23T05:29:28;9.50;99.90
13203;DHT22;6666;51.626;7.530;2023-02-23T05:31:56;9.50;99.90
13203;DHT22;6666;51.626;7.530;2023-02-23T05:34:25;9.50;99.90
13203;DHT22;6666;51.626;7.530;2023-02-23T05:36:53;9.40;99.90
13203;DHT22;6666;51.626;7.530;2023-02-23T05:39:22;9.40;99.90
13203;DHT22;6666;51.626;7.530;2023-02-23T05:41:50;9.50;99.90
13203;DHT22;6666;51.626;7.530;2023-02-23T05:44:20;9.50;99.90
13203;DHT22;6666;51.626;7.530;2023-02-23T05:46:48;9.50;99.90
13203;DHT22;6666;51.626;7.530;2023-02-23T05:49:16;9.50;99.90
13203;DHT22;6666;51.626;7.530;2023-02-23T05:51:45;9.50;99.90
13203;DHT22;6666;51.626;7.530;2023-02-23T05:54:13;9.50;99.90
13203;DHT22;6666;51.626;7.530;2023-02-23T05:56:41;9.40;99.90
13203;DHT22;6666;51.626;7.530;2023-02-23T05:59:10;9.50;99.90
13203;DHT22;6666;51.626;7.530;2023-02-23T06:01:40;9.50;99.90
13203;DHT22;6666;51.626;7.530;2023-02-23T06:04:09;9.50;99.90
13203;DHT22;6666;51.626;7.530;2023-02-23T06:06:37;9.40;99.90
13203;DHT22;6666;51.626;7.530;2023-02-23T06:09:06;9.40;99.90
13203;DHT22;6666;51.626;7.530;2023-02-23T06:11:34;9.40;99.90
13203;DHT22;6666;51.626;7.530;2023-02-23T06:14:03;9.40;99.90
13203;DHT22;6666;51.626;7.530;2023-02-23T06:16:31;9.40;99.90
13203;DHT22;6666;51.626;7.530;2023-02-23T06:19:01;9.40;99.90
13203;DHT22;6666;51.626;7.530;2023-02-23T06:21:29;9.30;99.90
13203;DHT22;6666;51.626;7.530;2023-02-23T06:23:58;9.40;99.90
13203;DHT22;6666;51.626;7.530;2023-02-23T06:26:27;9.40;99.90
13203;DHT22;6666;51.626;7.530;2023-02-23T06:28:55;9.40;99.90
13203;DHT22;6666;51.626;7.530;2023-02-23T06:31:23;9.30;99.90
13203;DHT22;6666;51.626;7.530;2023-02-23T06:33:51;9.30;99.90
13203;DHT22;6666;51.626;7.530;2023-02-23T06:36:23;9.30;99.90
13203;DHT22;6666;51.626;7.530;2023-02-23T06:38:55;9.30;99.90
13203;DHT22;6666;51.626;7.530;2023-02-23T06:41:24;9.30;99.90
13203;DHT22;6666;51.626;7.530;2023-02-23T06:43:53;9.30;99.90
13203;DHT22;6666;51.626;7.530;2023-02-23T06:46:21;9.30;99.90
13203;DHT22;6666;51.626;7.530;2023-02-23T06:48:53;9.30;99.90
13203;DHT22;6666;51.626;7.530;2023-02-23T06:51:24;9.30;99.90
13203;DHT22;6666;51.626;7.530;2023-02-23T06:53:52;9.20;99.90
13203;DHT22;6666;51.626;7.530;2023-02-23T06:56:21;9.30;99.90
13203;DHT22;6666;51.626;7.530;2023-02-23T06:58:49;9.30;99.90
13203;DHT22;6666;51.626;7.530;2023-02-23T07:01:17;9.30;99.90
13203;DHT22;6666;51.626;7.530;2023-02-23T07:03:47;9.30;99.90
13203;DHT22;6666;51.626;7.530;2023-02-23T07:06:15;9.30;99.90
13203;DHT22;6666;51.626;7.530;2023-02-23T07:08:45;9.30;99.90
13203;DHT22;6666;51.626;7.530;2023-02-23T07:11:14;9.30;99.90
13203;DHT22;6666;51.626;7.530;2023-02-23T07:13:44;9.30;99.90
13203;DHT22;6666;51.626;7.530;2023-02-23T07:16:12;9.30;99.90
13203;DHT22;6666;51.626;7.530;2023-02-23T07:18:42;9.40;99.90
13203;DHT22;6666;51.626;7.530;2023-02-23T07:21:10;9.30;99.90
13203;DHT22;6666;51.626;7.530;2023-02-23T07:23:38;9.40;99.90
13203;DHT22;6666;51.626;7.530;2023-02-23T07:26:08;9.40;99.90
13203;DHT22;6666;51.626;7.530;2023-02-23T07:28:41;9.40;99.90
13203;DHT22;6666;51.626;7.530;2023-02-23T07:31:09;9.30;99.90
13203;DHT22;6666;51.626;7.530;2023-02-23T07:33:38;9.30;99.90
13203;DHT22;6666;51.626;7.530;2023-02-23T07:36:07;9.40;99.90
13203;DHT22;6666;51.626;7.530;2023-02-23T07:38:35;9.40;99.90
13203;DHT22;6666;51.626;7.530;2023-02-23T07:41:04;9.40;99.90
13203;DHT22;6666;51.626;7.530;2023-02-23T07:43:34;9.40;99.90
13203;DHT22;6666;51.626;7.530;2023-02-23T07:46:02;9.40;99.90
13203;DHT22;6666;51.626;7.530;2023-02-23T07:48:31;9.40;99.90
13203;DHT22;6666;51.626;7.530;2023-02-23T07:50:59;9.40;99.90
13203;DHT22;6666;51.626;7.530;2023-02-23T07:53:27;9.40;99.90
13203;DHT22;6666;51.626;7.530;2023-02-23T07:55:55;9.40;99.90
13203;DHT22;6666;51.626;7.530;2023-02-23T07:58:24;9.40;99.90
13203;DHT22;6666;51.626;7.530;2023-02-23T08:00:53;9.40;99.90
13203;DHT22;6666;51.626;7.530;2023-02-23T08:03:22;9.30;99.90
13203;DHT22;6666;51.626;7.530;2023-02-23T08:05:50;9.40;99.90
13203;DHT22;6666;51.626;7.530;2023-02-23T08:08:19;9.30;99.90
13203;DHT22;6666;51.626;7.530;2023-02-23T08:10:48;9.30;99.90
13203;DHT22;6666;51.626;7.530;2023-02-23T08:13:16;9.30;99.90
13203;DHT22;6666;51.626;7.530;2023-02-23T08:15:45;9.40;99.90
13203;DHT22;6666;51.626;7.530;2023-02-23T08:18:14;9.40;99.90
13203;DHT22;6666;51.626;7.530;2023-02-23T08:20:43;9.40;99.90
13203;DHT22;6666;51.626;7.530;2023-02-23T08:23:11;9.30;99.90
13203;DHT22;6666;51.626;7.530;2023-02-23T08:25:40;9.30;99.90
13203;DHT22;6666;51.626;7.530;2023-02-23T08:28:08;9.40;99.90
13203;DHT22;6666;51.626;7.530;2023-02-23T08:30:36;9.40;99.90
13203;DHT22;6666;51.626;7.530;2023-02-23T08:33:06;9.30;99.90
13203;DHT22;6666;51.626;7.530;2023-02-23T08:35:35;9.40;99.90
13203;DHT22;6666;51.626;7.530;2023-02-23T08:38:03;9.50;99.90
13203;DHT22;6666;51.626;7.530;2023-02-23T08:40:32;9.50;99.90
13203;DHT22;6666;51.626;7.530;2023-02-23T08:43:00;9.50;99.90
13203;DHT22;6666;51.626;7.530;2023-02-23T08:45:28;9.40;99.90
13203;DHT22;6666;51.626;7.530;2023-02-23T08:47:56;9.40;99.90
13203;DHT22;6666;51.626;7.530;2023-02-23T08:50:25;9.40;99.90
13203;DHT22;6666;51.626;7.530;2023-02-23T08:52:54;9.30;99.90
13203;DHT22;6666;51.626;7.530;2023-02-23T08:55:23;9.30;99.90
13203;DHT22;6666;51.626;7.530;2023-02-23T08:57:51;9.30;99.90
13203;DHT22;6666;51.626;7.530;2023-02-23T09:00:20;9.20;99.90
13203;DHT22;6666;51.626;7.530;2023-02-23T09:02:49;9.20;99.90
13203;DHT22;6666;51.626;7.530;2023-02-23T09:05:17;9.30;99.90
13203;DHT22;6666;51.626;7.530;2023-02-23T09:07:46;9.30;99.90
13203;DHT22;6666;51.626;7.530;2023-02-23T09:10:20;9.30;99.90
13203;DHT22;6666;51.626;7.530;2023-02-23T09:12:50;9.30;99.90
13203;DHT22;6666;51.626;7.530;2023-02-23T09:15:19;9.20;99.90
13203;DHT22;6666;51.626;7.530;2023-02-23T09:17:47;9.20;99.90
13203;DHT22;6666;51.626;7.530;2023-02-23T09:20:16;9.20;99.90
13203;DHT22;6666;51.626;7.530;2023-02-23T09:22:44;9.30;99.90
13203;DHT22;6666;51.626;7.530;2023-02-23T09:25:14;9.40;99.90
13203;DHT22;6666;51.626;7.530;2023-02-23T09:27:46;9.30;99.90
13203;DHT22;6666;51.626;7.530;2023-02-23T09:30:18;9.30;99.90
13203;DHT22;6666;51.626;7.530;2023-02-23T09:32:47;9.40;99.90
13203;DHT22;6666;51.626;7.530;2023-02-23T09:35:16;9.40;99.90
13203;DHT22;6666;51.626;7.530;2023-02-23T09:37:46;9.40;99.90
13203;DHT22;6666;51.626;7.530;2023-02-23T09:40:17;9.30;99.90
13203;DHT22;6666;51.626;7.530;2023-02-23T09:42:55;9.30;99.90
13203;DHT22;6666;51.626;7.530;2023-02-23T09:45:36;9.40;99.90
13203;DHT22;6666;51.626;7.530;2023-02-23T09:48:12;9.40;99.90
13203;DHT22;6666;51.626;7.530;2023-02-23T09:50:46;9.40;99.90
13203;DHT22;6666;51.626;7.530;2023-02-23T09:53:32;9.40;99.90
13203;DHT22;6666;51.626;7.530;2023-02-23T09:56:06;9.40;99.90
13203;DHT22;6666;51.626;7.530;2023-02-23T09:58:38;9.50;99.90
13203;DHT22;6666;51.626;7.530;2023-02-23T10:01:19;9.50;99.90
13203;DHT22;6666;51.626;7.530;2023-02-23T10:03:52;9.40;99.90
13203;DHT22;6666;51.626;7.530;2023-02-23T10:06:22;9.30;99.90
13203;DHT22;6666;51.626;7.530;2023-02-23T10:09:00;9.40;99.90
13203;DHT22;6666;51.626;7.530;2023-02-23T10:11:35;9.40;99.90
13203;DHT22;6666;51.626;7.530;2023-02-23T10:14:19;9.30;99.90
13203;DHT22;6666;51.626;7.530;2023-02-23T10:16:59;9.40;99.90
13203;DHT22;6666;51.626;7.530;2023-02-23T10:19:38;9.30;99.90
13203;DHT22;6666;51.626;7.530;2023-02-23T10:22:10;9.40;99.90
13203;DHT22;6666;51.626;7.530;2023-02-23T10:24:45;9.40;99.90
13203;DHT22;6666;51.626;7.530;2023-02-23T10:27:18;9.30;99.90
13203;DHT22;6666;51.626;7.530;2023-02-23T10:29:50;9.30;99.90
13203;DHT22;6666;51.626;7.530;2023-02-23T10:32:24;9.30;99.90
13203;DHT22;6666;51.626;7.530;2023-02-23T10:34:55;9.40;99.90
13203;DHT22;6666;51.626;7.530;2023-02-23T10:37:24;9.50;99.90
13203;DHT22;6666;51.626;7.530;2023-02-23T10:39:53;9.60;99.90
13203;DHT22;6666;51.626;7.530;2023-02-23T10:42:23;9.60;99.90
13203;DHT22;6666;51.626;7.530;2023-02-23T10:44:57;9.50;99.90
13203;DHT22;6666;51.626;7.530;2023-02-23T10:47:28;9.70;99.90
13203;DHT22;6666;51.626;7.530;2023-02-23T10:49:57;9.70;99.90
13203;DHT22;6666;51.626;7.530;2023-02-23T10:52:29;9.70;99.90
13203;DHT22;6666;51.626;7.530;2023-02-23T10:54:59;9.60;99.90
13203;DHT22;6666;51.626;7.530;2023-02-23T10:57:33;9.70;99.90
13203;DHT22;6666;51.626;7.530;2023-02-23T11:00:23;9.80;99.90
13203;DHT22;6666;51.626;7.530;2023-02-23T11:02:59;9.70;99.90
13203;DHT22;6666;51.626;7.530;2023-02-23T11:05:33;9.70;99.90
13203;DHT22;6666;51.626;7.530;2023-02-23T11:08:10;9.80;99.90
13203;DHT22;6666;51.626;7.530;2023-02-23T11:10:39;9.70;99.90
13203;DHT22;6666;51.626;7.530;2023-02-23T11:13:20;9.60;99.90
13203;DHT22;6666;51.626;7.530;2023-02-23T11:15:58;9.60;99.90
13203;DHT22;6666;51.626;7.530;2023-02-23T11:18:28;9.70;99.90
13203;DHT22;6666;51.626;7.530;2023-02-23T11:20:56;9.70;99.90
13203;DHT22;6666;51.626;7.530;2023-02-23T11:23:27;9.70;99.90
13203;DHT22;6666;51.626;7.530;2023-02-23T11:25:58;9.70;99.90
13203;DHT22;6666;51.626;7.530;2023-02-23T11:28:30;9.60;99.90
13203;DHT22;6666;51.626;7.530;2023-02-23T11:31:02;9.70;99.90
13203;DHT22;6666;51.626;7.530;2023-02-23T11:33:33;9.80;99.90
13203;DHT22;6666;51.626;7.530;2023-02-23T11:36:25;9.80;99.90
13203;DHT22;6666;51.626;7.530;2023-02-23T11:39:02;9.80;99.90
13203;DHT22;6666;51.626;7.530;2023-02-23T11:41:32;9.70;99.90
13203;DHT22;6666;51.626;7.530;2023-02-23T11:44:02;9.50;99.90
13203;DHT22;6666;51.626;7.530;2023-02-23T11:46:36;9.40;99.90
13203;DHT22;6666;51.626;7.530;2023-02-23T11:49:07;9.30;99.90
13203;DHT22;6666;51.626;7.530;2023-02-23T11:51:38;9.20;99.90
13203;DHT22;6666;51.626;7.530;2023-02-23T11:54:14;9.30;99.90
13203;DHT22;6666;51.626;7.530;2023-02-23T11:56:47;9.30;99.90
13203;DHT22;6666;51.626;7.530;2023-02-23T11:59:22;9.30;99.90
13203;DHT22;6666;51.626;7.530;2023-02-23T12:01:55;9.30;99.90
13203;DHT22;6666;51.626;7.530;2023-02-23T12:04:28;9.30;99.90
13203;DHT22;6666;51.626;7.530;2023-02-23T12:07:32;9.30;99.90
13203;DHT22;6666;51.626;7.530;2023-02-23T12:10:10;9.20;99.90
13203;DHT22;6666;51.626;7.530;2023-02-23T12:12:45;9.30;99.90
13203;DHT22;6666;51.626;7.530;2023-02-23T12:15:21;9.30;99.90
13203;DHT22;6666;51.626;7.530;2023-02-23T12:17:54;9.30;99.90
13203;DHT22;6666;51.626;7.530;2023-02-23T12:20:29;9.30;99.90
13203;DHT22;6666;51.626;7.530;2023-02-23T12:23:02;9.30;99.90
13203;DHT22;6666;51.626;7.530;2023-02-23T12:25:35;9.30;99.90
13203;DHT22;6666;51.626;7.530;2023-02-23T12:28:10;9.30;99.90
13203;DHT22;6666;51.626;7.530;2023-02-23T12:30:49;9.30;99.90
13203;DHT22;6666;51.626;7.530;2023-02-23T12:33:23;9.30;99.90
13203;DHT22;6666;51.626;7.530;2023-02-23T12:35:58;9.20;99.90
13203;DHT22;6666;51.626;7.530;2023-02-23T12:38:33;9.30;99.90
13203;DHT22;6666;51.626;7.530;2023-02-23T12:41:09;9.30;99.90
13203;DHT22;6666;51.626;7.530;2023-02-23T12:43:43;9.30;99.90
13203;DHT22;6666;51.626;7.530;2023-02-23T12:46:17;9.30;99.90
13203;DHT22;6666;51.626;7.530;2023-02-23T12:48:55;9.10;99.90
13203;DHT22;6666;51.626;7.530;2023-02-23T12:51:29;9.10;99.90
13203;DHT22;6666;51.626;7.530;2023-02-23T12:53:58;9.10;99.90
13203;DHT22;6666;51.626;7.530;2023-02-23T12:56:33;9.00;99.90
13203;DHT22;6666;51.626;7.530;2023-02-23T12:59:13;9.00;99.90
13203;DHT22;6666;51.626;7.530;2023-02-23T13:01:47;9.00;99.90
13203;DHT22;6666;51.626;7.530;2023-02-23T13:04:43;9.10;99.90
13203;DHT22;6666;51.626;7.530;2023-02-23T13:07:20;9.10;99.90
13203;DHT22;6666;51.626;7.530;2023-02-23T13:09:58;9.00;99.90
13203;DHT22;6666;51.626;7.530;2023-02-23T13:12:35;9.10;99.90
13203;DHT22;6666;51.626;7.530;2023-02-23T13:15:15;9.00;99.90
13203;DHT22;6666;51.626;7.530;2023-02-23T13:17:52;8.90;99.90
13203;DHT22;6666;51.626;7.530;2023-02-23T13:20:29;8.90;99.90
13203;DHT22;6666;51.626;7.530;2023-02-23T13:23:09;8.90;99.90
13203;DHT22;6666;51.626;7.530;2023-02-23T13:25:48;9.00;99.90
13203;DHT22;6666;51.626;7.530;2023-02-23T13:28:28;9.10;99.90
13203;DHT22;6666;51.626;7.530;2023-02-23T13:30:58;9.00;99.90
13203;DHT22;6666;51.626;7.530;2023-02-23T13:33:30;9.00;99.90
13203;DHT22;6666;51.626;7.530;2023-02-23T13:36:11;9.20;99.90
13203;DHT22;6666;51.626;7.530;2023-02-23T13:38:44;9.20;99.90
13203;DHT22;6666;51.626;7.530;2023-02-23T13:41:26;9.10;99.90
13203;DHT22;6666;51.626;7.530;2023-02-23T13:43:59;9.20;99.90
13203;DHT22;6666;51.626;7.530;2023-02-23T13:46:34;9.10;99.90
13203;DHT22;6666;51.626;7.530;2023-02-23T13:49:18;9.20;99.90
13203;DHT22;6666;51.626;7.530;2023-02-23T13:51:54;9.10;99.90
13203;DHT22;6666;51.626;7.530;2023-02-23T13:54:30;9.10;99.90
13203;DHT22;6666;51.626;7.530;2023-02-23T13:57:00;8.90;99.90
13203;DHT22;6666;51.626;7.530;2023-02-23T13:59:30;9.00;99.90
13203;DHT22;6666;51.626;7.530;2023-02-23T14:02:24;9.00;99.90
13203;DHT22;6666;51.626;7.530;2023-02-23T14:05:04;9.00;99.90
13203;DHT22;6666;51.626;7.530;2023-02-23T14:07:40;8.90;99.90
13203;DHT22;6666;51.626;7.530;2023-02-23T14:10:16;8.90;99.90
13203;DHT22;6666;51.626;7.530;2023-02-23T14:13:25;9.00;99.90
13203;DHT22;6666;51.626;7.530;2023-02-23T14:16:13;9.00;99.90
13203;DHT22;6666;51.626;7.530;2023-02-23T14:18:55;9.00;99.90
13203;DHT22;6666;51.626;7.530;2023-02-23T14:21:30;9.00;99.90
13203;DHT22;6666;51.626;7.530;2023-02-23T14:24:13;8.90;99.90
13203;DHT22;6666;51.626;7.530;2023-02-23T14:29:38;8.90;99.90
13203;DHT22;6666;51.626;7.530;2023-02-23T14:32:28;8.90;99.90
13203;DHT22;6666;51.626;7.530;2023-02-23T14:34:59;8.90;99.90
13203;DHT22;6666;51.626;7.530;2023-02-23T14:37:30;9.00;99.90
13203;DHT22;6666;51.626;7.530;2023-02-23T14:40:04;8.90;99.90
13203;DHT22;6666;51.626;7.530;2023-02-23T14:42:37;8.90;99.90
13203;DHT22;6666;51.626;7.530;2023-02-23T14:45:16;8.90;99.90
13203;DHT22;6666;51.626;7.530;2023-02-23T14:47:46;8.90;99.90
13203;DHT22;6666;51.626;7.530;2023-02-23T14:50:23;8.90;99.90
13203;DHT22;6666;51.626;7.530;2023-02-23T14:52:53;8.80;99.90
13203;DHT22;6666;51.626;7.530;2023-02-23T14:55:26;8.90;99.90
13203;DHT22;6666;51.626;7.530;2023-02-23T14:57:55;8.90;99.90
13203;DHT22;6666;51.626;7.530;2023-02-23T15:00:25;9.00;99.90
13203;DHT22;6666;51.626;7.530;2023-02-23T15:02:57;9.00;99.90
13203;DHT22;6666;51.626;7.530;2023-02-23T15:05:28;9.00;99.90
13203;DHT22;6666;51.626;7.530;2023-02-23T15:07:58;8.90;99.90
13203;DHT22;6666;51.626;7.530;2023-02-23T15:10:31;8.90;99.90
13203;DHT22;6666;51.626;7.530;2023-02-23T15:13:06;9.00;99.90
13203;DHT22;6666;51.626;7.530;2023-02-23T15:15:40;8.90;99.90
13203;DHT22;6666;51.626;7.530;2023-02-23T15:18:20;8.90;99.90
13203;DHT22;6666;51.626;7.530;2023-02-23T15:20:49;8.90;99.90
13203;DHT22;6666;51.626;7.530;2023-02-23T15:23:18;8.90;99.90
13203;DHT22;6666;51.626;7.530;2023-02-23T15:25:48;9.00;99.90
13203;DHT22;6666;51.626;7.530;2023-02-23T15:28:24;9.00;99.90
13203;DHT22;6666;51.626;7.530;2023-02-23T15:30:55;8.90;99.90
13203;DHT22;6666;51.626;7.530;2023-02-23T15:33:24;8.80;99.90
13203;DHT22;6666;51.626;7.530;2023-02-23T15:35:59;8.80;99.90
13203;DHT22;6666;51.626;7.530;2023-02-23T15:38:33;8.80;99.90
13203;DHT22;6666;51.626;7.530;2023-02-23T15:41:17;8.80;99.90
13203;DHT22;6666;51.626;7.530;2023-02-23T15:43:49;8.80;99.90
13203;DHT22;6666;51.626;7.530;2023-02-23T15:46:21;8.70;99.90
13203;DHT22;6666;51.626;7.530;2023-02-23T15:48:53;8.70;99.90
13203;DHT22;6666;51.626;7.530;2023-02-23T15:51:33;8.70;99.90
13203;DHT22;6666;51.626;7.530;2023-02-23T15:54:08;8.70;99.90
13203;DHT22;6666;51.626;7.530;2023-02-23T15:56:41;8.70;99.90
13203;DHT22;6666;51.626;7.530;2023-02-23T15:59:19;8.60;99.90
13203;DHT22;6666;51.626;7.530;2023-02-23T16:01:51;8.60;99.90
13203;DHT22;6666;51.626;7.530;2023-02-23T16:04:26;8.60;99.90
13203;DHT22;6666;51.626;7.530;2023-02-23T16:07:08;8.60;99.90
13203;DHT22;6666;51.626;7.530;2023-02-23T16:09:47;8.60;99.90
13203;DHT22;6666;51.626;7.530;2023-02-23T16:12:20;8.70;99.90
13203;DHT22;6666;51.626;7.530;2023-02-23T16:14:51;8.70;99.90
13203;DHT22;6666;51.626;7.530;2023-02-23T16:17:26;8.60;99.90
13203;DHT22;6666;51.626;7.530;2023-02-23T16:19:57;8.60;99.90
13203;DHT22;6666;51.626;7.530;2023-02-23T16:22:37;8.50;99.90
13203;DHT22;6666;51.626;7.530;2023-02-23T16:25:11;8.60;99.90
13203;DHT22;6666;51.626;7.530;2023-02-23T16:27:42;8.60;99.90
13203;DHT22;6666;51.626;7.530;2023-02-23T16:30:17;8.60;99.90
13203;DHT22;6666;51.626;7.530;2023-02-23T16:33:04;8.60;99.90
13203;DHT22;6666;51.626;7.530;2023-02-23T16:35:35;8.60;99.90
13203;DHT22;6666;51.626;7.530;2023-02-23T16:38:11;8.60;99.90
13203;DHT22;6666;51.626;7.530;2023-02-23T16:40:40;8.60;99.90
13203;DHT22;6666;51.626;7.530;2023-02-23T16:43:10;8.60;99.90
13203;DHT22;6666;51.626;7.530;2023-02-23T16:45:40;8.60;99.90
13203;DHT22;6666;51.626;7.530;2023-02-23T16:48:11;8.70;99.90
13203;DHT22;6666;51.626;7.530;2023-02-23T16:50:40;8.60;99.90
13203;DHT22;6666;51.626;7.530;2023-02-23T16:53:09;8.60;99.90
13203;DHT22;6666;51.626;7.530;2023-02-23T16:55:40;8.60;99.90
13203;DHT22;6666;51.626;7.530;2023-02-23T16:58:15;8.60;99.90
13203;DHT22;6666;51.626;7.530;2023-02-23T17:00:44;8.60;99.90
13203;DHT22;6666;51.626;7.530;2023-02-23T17:03:19;8.60;99.90